Time;durP1;ratioP1;P1;durP2;ratioP2;P2;SDS_P1;SDS_P2;PMS_P1;PMS_P2;Temp;Humidity;BMP_temperature;BMP_pressure;BME280_temperature;BME280_humidity;BME280_pressure;Samples;Min_cycle;Max_cycle;Signal;HPM_P1;HPM_P2
2023/10/12 00:01:59;;;;;;;6.47;3.92;;;;;;;;;;5106392;28;20930;-79
2023/10/12 00:07:18;;;;;;;7.63;4.20;;;;;;;;;;5101611;28;20216;-78
2023/10/12 00:09:48;;;;;;;7.68;4.05;;;;;;;;;;5089517;28;20197;-79
2023/10/12 00:12:21;;;;;;;11.27;4.43;;;;;;;;;;5103710;28;20200;-78
2023/10/12 00:14:48;;;;;;;8.60;4.30;;;;;;;;;;5105797;28;20228;-78
2023/10/12 00:17:17;;;;;;;7.97;4.30;;;;;;;;;;5079186;28;20220;-79
2023/10/12 00:19:44;;;;;;;7.18;3.90;;;;;;;;;;5093732;27;20312;-76
2023/10/12 00:22:13;;;;;;;9.07;4.00;;;;;;;;;;5100461;27;20258;-78
2023/10/12 00:24:41;;;;;;;7.53;3.85;;;;;;;;;;5100216;28;20219;-76
2023/10/12 00:27:09;;;;;;;6.82;4.15;;;;;;;;;;5079154;28;20274;-76
2023/10/12 00:29:39;;;;;;;4.72;3.97;;;;;;;;;;5097100;27;20209;-76
2023/10/12 00:32:10;;;;;;;8.73;4.20;;;;;;;;;;5097175;28;20211;-76
2023/10/12 00:34:38;;;;;;;7.38;4.40;;;;;;;;;;5098926;27;20282;-75
2023/10/12 00:37:06;;;;;;;4.35;3.88;;;;;;;;;;5102423;27;20220;-75
2023/10/12 00:39:44;;;;;;;10.55;4.20;;;;;;;;;;5092277;27;20302;-76
2023/10/12 00:42:17;;;;;;;7.72;4.18;;;;;;;;;;5093016;28;20296;-76
2023/10/12 00:44:47;;;;;;;7.65;4.03;;;;;;;;;;5075133;28;20212;-77
2023/10/12 00:47:44;;;;;;;8.55;4.07;;;;;;;;;;5096920;28;20216;-76
2023/10/12 00:50:12;;;;;;;6.22;3.67;;;;;;;;;;5097271;27;20196;-74
2023/10/12 00:52:57;;;;;;;6.07;4.00;;;;;;;;;;5080668;28;20278;-75
2023/10/12 00:55:37;;;;;;;7.47;3.83;;;;;;;;;;5098970;28;20209;-76
2023/10/12 00:58:05;;;;;;;8.50;4.20;;;;;;;;;;5098147;27;20232;-74
2023/10/12 01:00:43;;;;;;;8.93;4.18;;;;;;;;;;5097584;27;20664;-74
2023/10/12 01:08:42;;;;;;;7.40;4.38;;;;;;;;;;5099085;27;20748;-76
2023/10/12 01:11:52;;;;;;;5.50;3.85;;;;;;;;;;5100515;27;20203;-79
2023/10/12 01:14:09;;;;;;;4.43;3.60;;;;;;;;;;5080586;27;20679;-76
2023/10/12 01:17:16;;;;;;;8.32;4.25;;;;;;;;;;5074521;28;20208;-74
2023/10/12 01:19:31;;;;;;;8.45;3.85;;;;;;;;;;5096307;27;20220;-77
2023/10/12 01:22:12;;;;;;;6.78;4.57;;;;;;;;;;5074341;28;20208;-77
2023/10/12 01:27:21;;;;;;;7.47;4.10;;;;;;;;;;5102602;28;20238;-74
2023/10/12 01:29:50;;;;;;;9.63;4.30;;;;;;;;;;5094921;27;20308;-75
2023/10/12 01:34:56;;;;;;;7.25;4.10;;;;;;;;;;5098638;27;20211;-75
2023/10/12 01:37:27;;;;;;;6.57;4.20;;;;;;;;;;5100320;27;20231;-75
2023/10/12 01:39:58;;;;;;;4.90;3.95;;;;;;;;;;5097102;27;20223;-76
2023/10/12 01:48:04;;;;;;;8.90;4.45;;;;;;;;;;5103647;27;20250;-75
2023/10/12 01:50:38;;;;;;;6.88;3.70;;;;;;;;;;5096599;28;20197;-76
2023/10/12 01:53:32;;;;;;;10.18;4.55;;;;;;;;;;5099632;27;20208;-76
2023/10/12 01:55:59;;;;;;;6.47;4.32;;;;;;;;;;5100234;28;20655;-75
2023/10/12 01:58:32;;;;;;;5.37;4.10;;;;;;;;;;5095857;27;20232;-74
2023/10/12 02:01:07;;;;;;;7.43;4.40;;;;;;;;;;5095208;28;20807;-77
2023/10/12 02:03:42;;;;;;;6.03;3.87;;;;;;;;;;5110877;27;20195;-74
2023/10/12 02:06:16;;;;;;;5.72;4.15;;;;;;;;;;5097331;28;20246;-76
2023/10/12 02:13:47;;;;;;;5.65;4.03;;;;;;;;;;5104237;27;20203;-76
2023/10/12 02:16:31;;;;;;;7.93;4.03;;;;;;;;;;5101155;27;20282;-77
2023/10/12 02:19:03;;;;;;;5.43;4.15;;;;;;;;;;5099603;28;20224;-77
2023/10/12 02:21:37;;;;;;;8.83;3.70;;;;;;;;;;5098658;28;20686;-76
2023/10/12 02:26:37;;;;;;;7.97;4.40;;;;;;;;;;5099559;27;20719;-76
2023/10/12 02:31:39;;;;;;;7.00;4.00;;;;;;;;;;5098742;28;20232;-75
2023/10/12 02:34:14;;;;;;;4.90;3.90;;;;;;;;;;5097683;28;20208;-76
2023/10/12 02:36:41;;;;;;;6.30;4.18;;;;;;;;;;5081363;28;20209;-75
2023/10/12 02:39:15;;;;;;;7.57;3.78;;;;;;;;;;5084380;28;20227;-76
2023/10/12 02:41:50;;;;;;;5.47;3.88;;;;;;;;;;5076814;28;20203;-76
2023/10/12 02:44:19;;;;;;;6.97;4.25;;;;;;;;;;5099605;28;20192;-75
2023/10/12 02:47:12;;;;;;;7.15;3.83;;;;;;;;;;5094029;28;20197;-75
2023/10/12 02:49:39;;;;;;;6.80;4.18;;;;;;;;;;5101526;28;20203;-75
2023/10/12 02:52:10;;;;;;;8.07;4.03;;;;;;;;;;5092449;28;20208;-75
2023/10/12 02:54:41;;;;;;;5.55;3.70;;;;;;;;;;5096653;28;20299;-76
2023/10/12 02:57:09;;;;;;;8.57;4.20;;;;;;;;;;5096490;28;20715;-75
2023/10/12 02:59:39;;;;;;;6.90;4.13;;;;;;;;;;5103264;28;21498;-76
2023/10/12 03:02:32;;;;;;;4.50;3.53;;;;;;;;;;5094774;28;20630;-76
2023/10/12 03:05:04;;;;;;;5.30;4.07;;;;;;;;;;5089914;28;20283;-75
2023/10/12 03:07:35;;;;;;;5.87;3.63;;;;;;;;;;5105737;28;20224;-75
2023/10/12 03:10:07;;;;;;;7.97;3.37;;;;;;;;;;5078135;28;20599;-76
2023/10/12 03:12:35;;;;;;;8.32;4.18;;;;;;;;;;5097568;28;20305;-76
2023/10/12 03:15:12;;;;;;;4.10;3.70;;;;;;;;;;5091802;28;20295;-75
2023/10/12 03:17:58;;;;;;;7.60;3.80;;;;;;;;;;5087948;28;20223;-76
2023/10/12 03:20:29;;;;;;;6.00;4.03;;;;;;;;;;5104143;28;20224;-77
2023/10/12 03:22:59;;;;;;;7.30;3.90;;;;;;;;;;5102823;28;20212;-77
2023/10/12 03:25:38;;;;;;;6.17;4.27;;;;;;;;;;5098349;28;20217;-75
2023/10/12 03:28:13;;;;;;;8.83;4.20;;;;;;;;;;5096910;28;20243;-76
2023/10/12 03:30:44;;;;;;;6.87;3.60;;;;;;;;;;5095111;28;20200;-76
2023/10/12 03:33:15;;;;;;;7.40;4.00;;;;;;;;;;5109594;28;20561;-77
2023/10/12 03:35:57;;;;;;;5.60;4.10;;;;;;;;;;5098074;28;20208;-76
2023/10/12 03:38:25;;;;;;;7.20;4.27;;;;;;;;;;5073855;28;20242;-76
2023/10/12 03:41:46;;;;;;;6.23;4.07;;;;;;;;;;5095160;28;20208;-77
2023/10/12 03:43:40;;;;;;;5.37;3.63;;;;;;;;;;5094544;28;20572;-77
2023/10/12 03:46:17;;;;;;;9.35;4.15;;;;;;;;;;5107271;28;20207;-77
2023/10/12 03:49:06;;;;;;;6.97;4.00;;;;;;;;;;5104542;28;20306;-76
2023/10/12 03:51:39;;;;;;;10.45;4.35;;;;;;;;;;5101088;28;20201;-76
2023/10/12 03:54:26;;;;;;;8.27;4.40;;;;;;;;;;5100045;28;20265;-76
2023/10/12 03:56:59;;;;;;;7.73;4.70;;;;;;;;;;5100616;28;20236;-73
2023/10/12 03:59:37;;;;;;;8.27;4.20;;;;;;;;;;5091567;28;20224;-75
2023/10/12 04:02:04;;;;;;;10.35;4.85;;;;;;;;;;5092897;28;20205;-76
2023/10/12 04:04:34;;;;;;;6.93;4.25;;;;;;;;;;5102402;28;20193;-76
2023/10/12 04:09:42;;;;;;;8.82;4.05;;;;;;;;;;5104915;28;20284;-76
2023/10/12 04:12:19;;;;;;;6.75;3.85;;;;;;;;;;5090787;28;20200;-74
2023/10/12 04:14:53;;;;;;;6.85;4.50;;;;;;;;;;5102641;28;20227;-77
2023/10/12 04:20:12;;;;;;;8.05;4.78;;;;;;;;;;5098520;28;20224;-74
2023/10/12 04:33:17;;;;;;;7.93;4.53;;;;;;;;;;5108020;27;20228;-75
2023/10/12 04:43:39;;;;;;;7.95;4.22;;;;;;;;;;5098384;28;20682;-75
2023/10/12 04:48:46;;;;;;;6.93;4.47;;;;;;;;;;5095859;27;20227;-76
2023/10/12 04:51:21;;;;;;;5.78;3.90;;;;;;;;;;5096994;27;20288;-75
2023/10/12 04:53:58;;;;;;;7.47;4.97;;;;;;;;;;5098002;27;20216;-78
2023/10/12 04:56:26;;;;;;;8.27;4.93;;;;;;;;;;5094986;27;21062;-76
2023/10/12 04:58:57;;;;;;;7.97;4.60;;;;;;;;;;5090734;28;20591;-77
2023/10/12 05:01:39;;;;;;;7.07;4.53;;;;;;;;;;5100958;27;20220;-76
2023/10/12 05:04:09;;;;;;;8.82;4.47;;;;;;;;;;5095746;27;20500;-77
2023/10/12 05:06:48;;;;;;;9.67;4.80;;;;;;;;;;5103795;28;20200;-75
2023/10/12 05:09:18;;;;;;;6.43;4.45;;;;;;;;;;5096196;27;20651;-75
2023/10/12 05:11:46;;;;;;;12.93;5.22;;;;;;;;;;5101902;28;20204;-75
2023/10/12 05:14:14;;;;;;;8.70;4.82;;;;;;;;;;5093807;28;20197;-76
2023/10/12 05:16:45;;;;;;;8.97;4.87;;;;;;;;;;5098512;28;20207;-75
2023/10/12 05:19:13;;;;;;;7.50;4.90;;;;;;;;;;5097749;28;20220;-76
2023/10/12 05:21:40;;;;;;;6.37;4.63;;;;;;;;;;5098693;27;20250;-75
2023/10/12 05:24:11;;;;;;;6.87;4.43;;;;;;;;;;5099748;28;20235;-75
2023/10/12 05:26:38;;;;;;;9.48;4.70;;;;;;;;;;5076640;28;20201;-76
2023/10/12 05:32:06;;;;;;;8.90;4.30;;;;;;;;;;5100296;28;20228;-75
2023/10/12 05:39:47;;;;;;;7.53;4.87;;;;;;;;;;5100379;28;20650;-77
2023/10/12 05:42:15;;;;;;;9.00;4.75;;;;;;;;;;5090626;27;20604;-75
2023/10/12 05:44:44;;;;;;;9.77;4.68;;;;;;;;;;5082968;27;20203;-77
2023/10/12 05:47:28;;;;;;;9.90;4.43;;;;;;;;;;5080676;28;20594;-74
2023/10/12 05:50:00;;;;;;;9.80;4.70;;;;;;;;;;5095467;28;20214;-74
2023/10/12 05:52:27;;;;;;;8.20;4.27;;;;;;;;;;5103611;28;20204;-76
2023/10/12 05:55:07;;;;;;;7.63;4.50;;;;;;;;;;5097435;27;20215;-75
2023/10/12 05:57:34;;;;;;;9.73;4.67;;;;;;;;;;5085380;28;20216;-77
2023/10/12 06:00:09;;;;;;;8.40;4.20;;;;;;;;;;5098105;27;20220;-77
2023/10/12 06:02:37;;;;;;;7.75;4.35;;;;;;;;;;5075952;28;20663;-77
2023/10/12 06:05:05;;;;;;;9.20;4.15;;;;;;;;;;5080939;28;20200;-75
2023/10/12 06:07:36;;;;;;;7.20;4.25;;;;;;;;;;5080076;28;20247;-77
2023/10/12 06:10:09;;;;;;;7.28;4.05;;;;;;;;;;5092154;28;20204;-74
2023/10/12 06:12:38;;;;;;;8.13;4.72;;;;;;;;;;5097553;28;20205;-78
2023/10/12 06:15:09;;;;;;;5.15;4.10;;;;;;;;;;5106096;27;20308;-78
2023/10/12 06:17:42;;;;;;;5.45;4.40;;;;;;;;;;5081846;28;20703;-79
2023/10/12 06:20:15;;;;;;;7.30;4.10;;;;;;;;;;5097281;28;20295;-78
2023/10/12 06:22:42;;;;;;;8.43;4.40;;;;;;;;;;5101281;28;20344;-78
2023/10/12 06:25:18;;;;;;;6.72;4.10;;;;;;;;;;5101772;27;20209;-75
2023/10/12 06:27:45;;;;;;;6.10;4.53;;;;;;;;;;5100391;28;20212;-78
2023/10/12 06:30:23;;;;;;;8.35;4.90;;;;;;;;;;5101476;28;20207;-78
2023/10/12 06:32:51;;;;;;;7.05;4.47;;;;;;;;;;5095787;28;20214;-78
2023/10/12 06:43:57;;;;;;;9.52;4.70;;;;;;;;;;5102456;28;20212;-77
2023/10/12 06:45:47;;;;;;;7.40;4.25;;;;;;;;;;5096491;28;20215;-79
2023/10/12 06:48:23;;;;;;;5.03;4.18;;;;;;;;;;5070729;28;20739;-78
2023/10/12 06:51:02;;;;;;;8.00;4.65;;;;;;;;;;5069079;28;20299;-77
2023/10/12 06:53:36;;;;;;;7.55;4.43;;;;;;;;;;5073712;28;20641;-76
2023/10/12 06:59:20;;;;;;;6.85;4.20;;;;;;;;;;5040655;28;20204;-78
2023/10/12 07:04:25;;;;;;;7.55;4.05;;;;;;;;;;5094642;28;20932;-78
2023/10/12 07:07:11;;;;;;;6.30;4.22;;;;;;;;;;5089651;28;20295;-78
2023/10/12 07:09:46;;;;;;;7.07;4.00;;;;;;;;;;5095724;28;20206;-77
2023/10/12 07:12:14;;;;;;;7.35;4.13;;;;;;;;;;5094320;28;20204;-77
2023/10/12 07:14:55;;;;;;;8.48;4.32;;;;;;;;;;5090629;28;20572;-76
2023/10/12 07:17:32;;;;;;;8.55;4.55;;;;;;;;;;5100310;28;20227;-79
2023/10/12 07:19:59;;;;;;;7.53;4.28;;;;;;;;;;5094916;28;20226;-78
2023/10/12 07:22:27;;;;;;;11.20;4.50;;;;;;;;;;5096975;28;20202;-78
2023/10/12 07:24:56;;;;;;;7.57;4.22;;;;;;;;;;5062370;28;20204;-78
2023/10/12 07:27:24;;;;;;;8.80;4.20;;;;;;;;;;5095225;28;20216;-78
2023/10/12 07:30:30;;;;;;;8.05;4.30;;;;;;;;;;5078306;28;20725;-78
2023/10/12 07:32:59;;;;;;;8.15;4.30;;;;;;;;;;5087339;28;20302;-78
2023/10/12 07:35:41;;;;;;;7.80;4.40;;;;;;;;;;5101305;28;20678;-78
2023/10/12 07:38:45;;;;;;;8.23;4.80;;;;;;;;;;5082822;28;20224;-78
2023/10/12 07:41:03;;;;;;;5.93;4.15;;;;;;;;;;5096567;27;20225;-78
2023/10/12 07:43:38;;;;;;;9.40;4.22;;;;;;;;;;5092745;27;20211;-78
2023/10/12 07:46:24;;;;;;;8.25;4.28;;;;;;;;;;5097964;28;20767;-78
2023/10/12 07:48:52;;;;;;;9.55;4.40;;;;;;;;;;5100902;28;20228;-77
2023/10/12 07:51:25;;;;;;;11.15;4.78;;;;;;;;;;5076204;28;20209;-78
2023/10/12 07:54:00;;;;;;;9.13;4.30;;;;;;;;;;5096573;27;20219;-79
2023/10/12 07:56:34;;;;;;;10.52;4.35;;;;;;;;;;5094561;28;20303;-78
2023/10/12 07:59:01;;;;;;;5.28;4.10;;;;;;;;;;5100165;28;20291;-78
2023/10/12 08:03:59;;;;;;;6.78;4.68;;;;;;;;;;5099184;27;20208;-78
2023/10/12 08:06:31;;;;;;;11.95;4.45;;;;;;;;;;5068961;28;20205;-77
2023/10/12 08:09:04;;;;;;;7.13;4.13;;;;;;;;;;5072794;28;20942;-78
2023/10/12 08:11:34;;;;;;;5.80;3.65;;;;;;;;;;5076530;28;20201;-78
2023/10/12 08:14:19;;;;;;;7.88;4.55;;;;;;;;;;5105465;27;20204;-76
2023/10/12 08:17:24;;;;;;;7.40;4.30;;;;;;;;;;5097669;28;20201;-78
2023/10/12 08:19:44;;;;;;;8.63;4.13;;;;;;;;;;5099722;28;21543;-77
2023/10/12 08:22:36;;;;;;;7.65;4.55;;;;;;;;;;5094381;28;20197;-78
2023/10/12 08:25:04;;;;;;;6.25;4.10;;;;;;;;;;5098661;27;20204;-77
2023/10/12 08:28:06;;;;;;;7.35;4.53;;;;;;;;;;5093100;27;20217;-79
2023/10/12 08:30:48;;;;;;;5.65;4.15;;;;;;;;;;5089768;27;21112;-79
2023/10/12 08:33:16;;;;;;;7.38;4.00;;;;;;;;;;5096518;28;20250;-78
2023/10/12 08:38:40;;;;;;;6.72;4.13;;;;;;;;;;5100194;28;20310;-78
2023/10/12 08:43:59;;;;;;;5.18;4.00;;;;;;;;;;5096635;27;20209;-77
2023/10/12 08:47:09;;;;;;;7.78;4.40;;;;;;;;;;5105435;28;20224;-77
2023/10/12 08:52:29;;;;;;;4.32;3.35;;;;;;;;;;5034848;28;20201;-78
2023/10/12 08:57:42;;;;;;;8.80;4.78;;;;;;;;;;5101687;27;20217;-78
2023/10/12 09:00:39;;;;;;;6.72;4.40;;;;;;;;;;5086213;28;20232;-77
2023/10/12 09:05:51;;;;;;;8.18;4.18;;;;;;;;;;5100150;28;20196;-79
2023/10/12 09:13:33;;;;;;;8.77;4.63;;;;;;;;;;5095490;28;20211;-80
2023/10/12 09:16:07;;;;;;;6.35;4.20;;;;;;;;;;5103186;27;20208;-79
2023/10/12 09:18:43;;;;;;;6.90;4.35;;;;;;;;;;5086375;27;20225;-80
2023/10/12 09:26:46;;;;;;;5.75;4.20;;;;;;;;;;5096967;28;20192;-79
2023/10/12 09:29:42;;;;;;;12.68;4.30;;;;;;;;;;5090448;28;20232;-79
2023/10/12 09:32:23;;;;;;;5.90;4.35;;;;;;;;;;5097518;27;20196;-78
2023/10/12 09:35:10;;;;;;;9.15;4.50;;;;;;;;;;5084348;28;20196;-77
2023/10/12 09:37:44;;;;;;;7.18;3.80;;;;;;;;;;5094063;28;20220;-78
2023/10/12 09:43:02;;;;;;;4.97;3.95;;;;;;;;;;5100420;27;20204;-77
2023/10/12 09:45:35;;;;;;;7.82;3.95;;;;;;;;;;5093275;28;20263;-78
2023/10/12 09:48:05;;;;;;;10.40;4.20;;;;;;;;;;5101742;27;20216;-79
2023/10/12 09:50:36;;;;;;;21.05;5.15;;;;;;;;;;5098634;28;20200;-78
2023/10/12 09:53:12;;;;;;;6.05;4.07;;;;;;;;;;5097841;27;20195;-77
2023/10/12 09:55:57;;;;;;;6.22;4.28;;;;;;;;;;5101638;28;20203;-77
2023/10/12 09:58:24;;;;;;;5.18;3.70;;;;;;;;;;5094519;27;20800;-79
2023/10/12 10:00:55;;;;;;;7.63;4.50;;;;;;;;;;5102466;28;20231;-79
2023/10/12 10:03:35;;;;;;;7.20;4.18;;;;;;;;;;5092512;28;20207;-79
2023/10/12 10:06:18;;;;;;;7.53;4.10;;;;;;;;;;5105320;28;20200;-78
2023/10/12 10:09:09;;;;;;;6.68;4.13;;;;;;;;;;5101066;28;20356;-79
2023/10/12 10:11:38;;;;;;;8.65;4.25;;;;;;;;;;5100830;27;20200;-77
2023/10/12 10:14:10;;;;;;;9.73;4.47;;;;;;;;;;5070363;28;20696;-77
2023/10/12 10:16:46;;;;;;;6.88;3.78;;;;;;;;;;5094825;28;20236;-77
2023/10/12 10:19:16;;;;;;;7.28;3.90;;;;;;;;;;5096382;28;20204;-78
2023/10/12 10:21:49;;;;;;;8.15;3.92;;;;;;;;;;5100125;28;20232;-78
2023/10/12 10:24:24;;;;;;;5.03;3.85;;;;;;;;;;5081089;28;20215;-79
2023/10/12 10:26:59;;;;;;;5.25;3.80;;;;;;;;;;5093879;28;20240;-78
2023/10/12 10:30:00;;;;;;;8.68;4.30;;;;;;;;;;5092687;28;20580;-78
2023/10/12 10:32:29;;;;;;;5.65;4.13;;;;;;;;;;5094986;28;20197;-80
2023/10/12 10:35:07;;;;;;;5.53;3.97;;;;;;;;;;5101570;28;20204;-79
2023/10/12 10:37:49;;;;;;;9.13;4.20;;;;;;;;;;5091898;28;20226;-78
2023/10/12 10:40:17;;;;;;;6.72;3.78;;;;;;;;;;5102985;28;20207;-77
2023/10/12 10:43:19;;;;;;;9.07;4.05;;;;;;;;;;5079165;28;20202;-77
2023/10/12 10:45:39;;;;;;;7.47;4.18;;;;;;;;;;5099054;27;20232;-79
2023/10/12 10:48:06;;;;;;;5.38;3.88;;;;;;;;;;5091300;28;20223;-77
2023/10/12 10:50:54;;;;;;;7.10;4.22;;;;;;;;;;5076799;28;20318;-77
2023/10/12 10:53:22;;;;;;;8.27;4.00;;;;;;;;;;5096314;28;20294;-77
2023/10/12 10:55:50;;;;;;;10.55;3.97;;;;;;;;;;5094350;28;20240;-79
2023/10/12 10:58:22;;;;;;;5.28;3.80;;;;;;;;;;5095916;28;20227;-79
2023/10/12 11:00:56;;;;;;;7.93;4.10;;;;;;;;;;5085587;28;21976;-78
2023/10/12 11:03:26;;;;;;;7.45;4.03;;;;;;;;;;5107018;28;20196;-79
2023/10/12 11:05:53;;;;;;;5.22;3.70;;;;;;;;;;5106115;28;20224;-79
2023/10/12 11:08:27;;;;;;;7.32;3.75;;;;;;;;;;5101738;28;20216;-77
2023/10/12 11:13:38;;;;;;;5.85;3.88;;;;;;;;;;5094224;28;20219;-79
2023/10/12 11:16:28;;;;;;;6.10;3.63;;;;;;;;;;5099962;28;20289;-78
2023/10/12 11:19:00;;;;;;;8.68;4.10;;;;;;;;;;5105441;28;20284;-79
2023/10/12 11:21:28;;;;;;;8.18;3.70;;;;;;;;;;5078661;28;20255;-79
2023/10/12 11:24:02;;;;;;;8.40;4.25;;;;;;;;;;5109797;28;20223;-78
2023/10/12 11:26:39;;;;;;;6.90;4.10;;;;;;;;;;5100705;28;20204;-79
2023/10/12 11:29:10;;;;;;;8.48;4.35;;;;;;;;;;5089780;27;20200;-77
2023/10/12 11:31:38;;;;;;;7.15;3.90;;;;;;;;;;5095077;28;20227;-76
2023/10/12 11:34:11;;;;;;;6.18;3.83;;;;;;;;;;5106239;27;20224;-78
2023/10/12 11:36:39;;;;;;;7.45;3.97;;;;;;;;;;5075718;28;20204;-77
2023/10/12 11:39:28;;;;;;;6.50;3.78;;;;;;;;;;5101034;28;20200;-79
2023/10/12 11:42:07;;;;;;;5.30;3.50;;;;;;;;;;5081230;28;20231;-79
2023/10/12 11:44:36;;;;;;;5.72;3.72;;;;;;;;;;5081889;28;20616;-78
2023/10/12 11:47:07;;;;;;;6.47;4.18;;;;;;;;;;5100149;27;20263;-79
2023/10/12 11:49:55;;;;;;;6.88;3.28;;;;;;;;;;5086900;28;20305;-79
2023/10/12 11:52:32;;;;;;;5.38;3.50;;;;;;;;;;5098147;28;20579;-79
2023/10/12 11:55:18;;;;;;;7.60;4.03;;;;;;;;;;5089964;28;20239;-78
2023/10/12 11:57:54;;;;;;;5.65;3.45;;;;;;;;;;5091475;27;20234;-79
2023/10/12 12:00:38;;;;;;;6.05;3.92;;;;;;;;;;5102422;28;20199;-78
2023/10/12 12:03:08;;;;;;;5.82;3.28;;;;;;;;;;5100777;28;20288;-78
2023/10/12 12:05:36;;;;;;;7.03;3.20;;;;;;;;;;5103024;28;20200;-78
2023/10/12 12:08:38;;;;;;;6.25;3.55;;;;;;;;;;5098475;27;20227;-78
2023/10/12 12:11:03;;;;;;;6.10;3.30;;;;;;;;;;5092932;27;20212;-78
2023/10/12 12:13:35;;;;;;;6.25;3.05;;;;;;;;;;5097449;28;20208;-79
2023/10/12 12:16:07;;;;;;;8.65;3.17;;;;;;;;;;5102374;28;20617;-79
2023/10/12 12:18:35;;;;;;;4.60;3.38;;;;;;;;;;5098647;28;20782;-79
2023/10/12 12:21:04;;;;;;;10.30;3.35;;;;;;;;;;5103211;28;20292;-79
2023/10/12 12:23:35;;;;;;;5.45;2.97;;;;;;;;;;5075784;28;20204;-79
2023/10/12 12:26:09;;;;;;;6.20;3.10;;;;;;;;;;5098265;28;20222;-78
2023/10/12 12:28:43;;;;;;;7.60;3.25;;;;;;;;;;5106585;28;20231;-79
2023/10/12 12:31:14;;;;;;;6.10;3.40;;;;;;;;;;5100352;28;20295;-79
2023/10/12 12:33:45;;;;;;;9.35;3.38;;;;;;;;;;5099467;27;20201;-78
2023/10/12 12:36:20;;;;;;;6.03;3.20;;;;;;;;;;5103379;28;20208;-80
2023/10/12 12:38:52;;;;;;;7.03;3.10;;;;;;;;;;5094631;28;22083;-78
2023/10/12 12:41:19;;;;;;;6.63;3.40;;;;;;;;;;5082032;28;20216;-77
2023/10/12 12:43:51;;;;;;;7.85;2.95;;;;;;;;;;5096052;28;20204;-79
2023/10/12 12:46:19;;;;;;;6.75;3.70;;;;;;;;;;5078514;28;20201;-79
2023/10/12 12:48:50;;;;;;;7.00;3.97;;;;;;;;;;5096954;28;20759;-79
2023/10/12 12:51:18;;;;;;;7.32;4.00;;;;;;;;;;5102801;28;20262;-77
2023/10/12 12:53:47;;;;;;;4.45;2.92;;;;;;;;;;5079966;28;20201;-77
2023/10/12 12:56:18;;;;;;;5.00;2.88;;;;;;;;;;5098702;27;20201;-81
2023/10/12 12:58:46;;;;;;;6.40;2.88;;;;;;;;;;5102025;28;20224;-76
2023/10/12 13:01:17;;;;;;;5.75;3.20;;;;;;;;;;5103144;28;20318;-78
2023/10/12 13:03:45;;;;;;;4.07;2.97;;;;;;;;;;5102604;28;20197;-77
2023/10/12 13:06:15;;;;;;;6.25;3.00;;;;;;;;;;5116261;27;20643;-79
2023/10/12 13:08:42;;;;;;;4.15;2.90;;;;;;;;;;5106428;28;20586;-78
2023/10/12 13:11:11;;;;;;;5.47;3.03;;;;;;;;;;5109990;27;20732;-80
2023/10/12 13:13:39;;;;;;;6.60;2.88;;;;;;;;;;5090314;28;20311;-78
2023/10/12 13:16:12;;;;;;;6.13;3.25;;;;;;;;;;5094479;28;20306;-77
2023/10/12 13:18:46;;;;;;;11.02;3.30;;;;;;;;;;5104224;27;20224;-79
2023/10/12 13:21:17;;;;;;;5.13;3.20;;;;;;;;;;5091216;28;20227;-79
2023/10/12 13:23:45;;;;;;;6.25;3.53;;;;;;;;;;5073582;28;20660;-78
2023/10/12 13:26:13;;;;;;;4.38;2.97;;;;;;;;;;5092442;28;21014;-78
2023/10/12 13:28:42;;;;;;;10.18;3.42;;;;;;;;;;5104470;27;20217;-78
2023/10/12 13:31:13;;;;;;;6.22;3.47;;;;;;;;;;5079102;28;20200;-79
2023/10/12 13:34:02;;;;;;;5.10;3.55;;;;;;;;;;5098850;27;20215;-79
2023/10/12 13:36:47;;;;;;;4.32;3.13;;;;;;;;;;5098572;28;20673;-79
2023/10/12 13:39:16;;;;;;;4.53;3.05;;;;;;;;;;5097977;27;20295;-77
2023/10/12 13:41:43;;;;;;;7.47;3.40;;;;;;;;;;5104747;28;20646;-76
2023/10/12 13:44:13;;;;;;;6.82;2.92;;;;;;;;;;5093668;28;20260;-78
2023/10/12 13:46:45;;;;;;;8.65;4.05;;;;;;;;;;5075728;28;20732;-78
2023/10/12 13:49:13;;;;;;;4.78;3.05;;;;;;;;;;5105206;28;20694;-77
2023/10/12 13:51:47;;;;;;;3.97;2.70;;;;;;;;;;5092337;28;20250;-78
2023/10/12 13:54:15;;;;;;;9.63;3.95;;;;;;;;;;5090484;27;20211;-78
2023/10/12 13:56:48;;;;;;;7.15;3.22;;;;;;;;;;5101805;28;20287;-79
2023/10/12 13:59:16;;;;;;;5.32;2.83;;;;;;;;;;5092848;28;20200;-79
2023/10/12 14:01:43;;;;;;;8.40;2.90;;;;;;;;;;5089945;28;20316;-78
2023/10/12 14:04:28;;;;;;;5.68;3.13;;;;;;;;;;5075045;28;20212;-80
2023/10/12 14:07:03;;;;;;;13.13;7.72;;;;;;;;;;5094002;28;20224;-77
2023/10/12 14:09:31;;;;;;;5.18;3.63;;;;;;;;;;5099832;28;20712;-80
2023/10/12 14:11:59;;;;;;;6.18;3.17;;;;;;;;;;5089922;28;20263;-77
2023/10/12 14:14:27;;;;;;;4.15;2.60;;;;;;;;;;5099082;28;20208;-79
2023/10/12 14:16:54;;;;;;;10.73;3.05;;;;;;;;;;5080847;28;20298;-78
2023/10/12 14:19:23;;;;;;;6.55;3.10;;;;;;;;;;5091916;28;20262;-80
2023/10/12 14:21:52;;;;;;;6.93;2.90;;;;;;;;;;5090970;28;20220;-79
2023/10/12 14:24:24;;;;;;;5.53;2.67;;;;;;;;;;5077682;27;20668;-78
2023/10/12 14:26:55;;;;;;;5.25;2.75;;;;;;;;;;5101678;28;20300;-79
2023/10/12 14:29:24;;;;;;;6.65;2.92;;;;;;;;;;5095591;28;20208;-78
2023/10/12 14:31:54;;;;;;;6.13;2.90;;;;;;;;;;5094514;28;20307;-77
2023/10/12 14:34:21;;;;;;;4.45;2.65;;;;;;;;;;5095622;27;20234;-78
2023/10/12 14:36:49;;;;;;;5.72;2.92;;;;;;;;;;5097382;28;20585;-77
2023/10/12 14:39:29;;;;;;;6.68;2.88;;;;;;;;;;5096449;28;20197;-79
2023/10/12 14:41:57;;;;;;;3.70;2.70;;;;;;;;;;5072992;28;20401;-79
2023/10/12 14:44:25;;;;;;;4.65;2.90;;;;;;;;;;5095995;28;20200;-78
2023/10/12 14:46:54;;;;;;;10.00;3.15;;;;;;;;;;5100082;27;20585;-78
2023/10/12 14:49:23;;;;;;;5.60;2.72;;;;;;;;;;5097639;28;20204;-78
2023/10/12 14:51:51;;;;;;;6.63;3.15;;;;;;;;;;5100069;28;20238;-78
2023/10/12 14:54:20;;;;;;;6.57;3.00;;;;;;;;;;5100808;28;20196;-80
2023/10/12 14:56:47;;;;;;;7.28;2.63;;;;;;;;;;5073536;28;20201;-78
2023/10/12 14:59:14;;;;;;;3.63;2.60;;;;;;;;;;5078271;28;20580;-77
2023/10/12 15:01:42;;;;;;;5.13;2.75;;;;;;;;;;5088732;28;20229;-80
2023/10/12 15:04:10;;;;;;;5.25;2.72;;;;;;;;;;5096348;28;21083;-77
2023/10/12 15:06:37;;;;;;;5.43;3.10;;;;;;;;;;5098567;28;20208;-79
2023/10/12 15:09:10;;;;;;;7.05;2.92;;;;;;;;;;5097748;28;20652;-79
2023/10/12 15:11:37;;;;;;;8.60;3.13;;;;;;;;;;5081471;28;20196;-78
2023/10/12 15:14:06;;;;;;;6.00;3.00;;;;;;;;;;5098554;28;20212;-79
2023/10/12 15:16:33;;;;;;;5.25;2.88;;;;;;;;;;5073644;28;22201;-78
2023/10/12 15:19:08;;;;;;;3.75;2.50;;;;;;;;;;5098628;28;20224;-77
2023/10/12 15:21:36;;;;;;;5.88;2.90;;;;;;;;;;5079062;28;20452;-76
2023/10/12 15:24:04;;;;;;;6.18;2.75;;;;;;;;;;5064188;28;20270;-77
2023/10/12 15:26:31;;;;;;;5.05;2.80;;;;;;;;;;5104739;28;20199;-78
2023/10/12 15:28:58;;;;;;;4.72;3.10;;;;;;;;;;5086298;28;20223;-76
2023/10/12 15:31:26;;;;;;;4.88;2.60;;;;;;;;;;5089662;28;20200;-78
2023/10/12 15:33:55;;;;;;;5.38;3.28;;;;;;;;;;5092135;28;20208;-76
2023/10/12 15:36:23;;;;;;;5.13;2.83;;;;;;;;;;5087671;28;20213;-75
2023/10/12 15:38:54;;;;;;;5.47;2.90;;;;;;;;;;5081119;28;20694;-78
2023/10/12 15:41:23;;;;;;;4.57;2.85;;;;;;;;;;5099191;28;20668;-79
2023/10/12 15:43:51;;;;;;;4.03;2.40;;;;;;;;;;5105605;28;20201;-79
2023/10/12 15:46:19;;;;;;;6.10;2.67;;;;;;;;;;5088882;28;20292;-78
2023/10/12 15:48:47;;;;;;;5.80;3.38;;;;;;;;;;5106959;28;20671;-78
2023/10/12 15:51:19;;;;;;;5.97;2.90;;;;;;;;;;5105137;28;20204;-75
2023/10/12 15:53:48;;;;;;;5.72;3.00;;;;;;;;;;5082082;28;20208;-77
2023/10/12 15:56:18;;;;;;;4.82;2.90;;;;;;;;;;5099686;28;20203;-76
2023/10/12 15:58:49;;;;;;;5.60;2.97;;;;;;;;;;5103784;28;20234;-76
2023/10/12 16:01:17;;;;;;;3.60;2.58;;;;;;;;;;5097547;28;20649;-76
2023/10/12 16:03:45;;;;;;;5.45;2.65;;;;;;;;;;5102833;27;20715;-77
2023/10/12 16:06:13;;;;;;;4.15;2.63;;;;;;;;;;5101906;28;20252;-76
2023/10/12 16:08:41;;;;;;;5.38;2.67;;;;;;;;;;5105027;27;20212;-79
2023/10/12 16:11:08;;;;;;;5.43;2.75;;;;;;;;;;5106237;28;20211;-77
2023/10/12 16:13:38;;;;;;;8.20;2.92;;;;;;;;;;5100113;27;20698;-77
2023/10/12 16:16:12;;;;;;;6.60;2.95;;;;;;;;;;5100470;28;20646;-77
2023/10/12 16:18:43;;;;;;;3.97;2.70;;;;;;;;;;5099946;28;20231;-77
2023/10/12 16:21:12;;;;;;;7.00;2.72;;;;;;;;;;5080280;28;20197;-76
2023/10/12 16:23:40;;;;;;;4.15;2.88;;;;;;;;;;5096710;28;20278;-77
2023/10/12 16:26:11;;;;;;;5.15;2.97;;;;;;;;;;5097525;28;20295;-76
2023/10/12 16:28:40;;;;;;;5.13;2.90;;;;;;;;;;5098342;27;20217;-77
2023/10/12 16:31:08;;;;;;;6.80;2.85;;;;;;;;;;5105970;27;20264;-77
2023/10/12 16:33:38;;;;;;;4.57;2.60;;;;;;;;;;5089079;28;20232;-76
2023/10/12 16:36:07;;;;;;;5.45;2.67;;;;;;;;;;5101363;28;20212;-78
2023/10/12 16:38:35;;;;;;;5.63;2.75;;;;;;;;;;5105123;28;20638;-75
2023/10/12 16:41:07;;;;;;;5.40;2.63;;;;;;;;;;5083414;27;20200;-75
2023/10/12 16:43:35;;;;;;;7.90;2.50;;;;;;;;;;5093064;28;20717;-77
2023/10/12 16:46:04;;;;;;;6.68;2.75;;;;;;;;;;5095985;27;20212;-76
2023/10/12 16:48:32;;;;;;;4.63;2.88;;;;;;;;;;5081749;28;20240;-77
2023/10/12 16:50:59;;;;;;;7.03;2.63;;;;;;;;;;5100525;28;20302;-78
2023/10/12 16:53:29;;;;;;;7.10;3.10;;;;;;;;;;5098598;28;20664;-75
2023/10/12 16:55:57;;;;;;;6.95;2.85;;;;;;;;;;5105678;28;20204;-77
2023/10/12 16:58:24;;;;;;;10.68;3.00;;;;;;;;;;5091362;28;20302;-77
2023/10/12 17:00:55;;;;;;;6.18;2.83;;;;;;;;;;5093474;28;20204;-79
2023/10/12 17:03:23;;;;;;;6.13;2.80;;;;;;;;;;5090632;28;20221;-76
2023/10/12 17:05:55;;;;;;;6.93;2.88;;;;;;;;;;5067331;28;20203;-76
2023/10/12 17:08:23;;;;;;;6.22;3.10;;;;;;;;;;5089330;28;20311;-76